createdAt,value
2024-04-18T00:02:19.763Z,87768.66
2024-04-18T00:05:05.085Z,87775.94
2024-04-18T00:07:50.110Z,87764.75
2024-04-18T00:10:35.189Z,87765.44
2024-04-18T00:13:20.337Z,87766.56
2024-04-18T00:16:05.273Z,87767.75
2024-04-18T00:18:50.340Z,87764.22
2024-04-18T00:21:35.363Z,87757.69
2024-04-18T00:24:20.601Z,87759.81
2024-04-18T00:27:05.614Z,87749.47
2024-04-18T00:29:50.724Z,87752.25
2024-04-18T00:32:35.955Z,87749.16
2024-04-18T00:35:20.936Z,87752.84
2024-04-18T00:38:06.193Z,87745.88
2024-04-18T00:40:51.228Z,87744.75
2024-04-18T00:43:36.378Z,87746.16
2024-04-18T00:46:21.420Z,87746.19
2024-04-18T00:49:06.545Z,87738.03
2024-04-18T00:51:51.837Z,87749.28
2024-04-18T00:54:36.859Z,87747.91
2024-04-18T00:57:21.700Z,87742.81
2024-04-18T01:00:06.784Z,87744.19
2024-04-18T01:02:51.871Z,87741.41
2024-04-18T01:05:36.888Z,87737.66
2024-04-18T01:08:21.886Z,87740.22
2024-04-18T01:11:06.981Z,87730.91
2024-04-18T01:13:51.876Z,87733.97
2024-04-18T01:16:36.889Z,87735.84
2024-04-18T01:19:22.010Z,87737.88
2024-04-18T01:22:07.181Z,87734.28
2024-04-18T01:24:52.235Z,87734.50
2024-04-18T01:27:37.411Z,87733.75
2024-04-18T01:30:22.410Z,87736.13
2024-04-18T01:33:07.396Z,87724.22
2024-04-18T01:35:52.491Z,87729.09
2024-04-18T01:38:37.571Z,87730.72
2024-04-18T01:41:22.713Z,87724.34
2024-04-18T01:44:07.652Z,87723.41
2024-04-18T01:46:52.946Z,87723.91
2024-04-18T01:49:38.020Z,87724.38
2024-04-18T01:52:23.174Z,87727.38
2024-04-18T01:55:08.199Z,87729.22
2024-04-18T01:57:53.305Z,87722.50
2024-04-18T02:00:38.436Z,87722.09
2024-04-18T02:03:23.565Z,87727.38
2024-04-18T02:06:08.569Z,87725.59
2024-04-18T02:08:53.538Z,87716.13
2024-04-18T02:11:38.662Z,87722.22
2024-04-18T02:14:23.766Z,87722.91
2024-04-18T02:17:08.735Z,87728.06
2024-04-18T02:19:53.745Z,87728.75
2024-04-18T02:22:38.695Z,87725.28
2024-04-18T02:25:23.859Z,87723.44
2024-04-18T02:28:08.933Z,87723.69
2024-04-18T02:30:53.935Z,87725.16
2024-04-18T02:33:38.980Z,87725.41
2024-04-18T02:36:23.889Z,87723.72
2024-04-18T02:39:08.894Z,87719.50
2024-04-18T02:41:54.054Z,87718.78
2024-04-18T02:44:39.172Z,87723.44
2024-04-18T02:47:24.198Z,87722.25
2024-04-18T02:50:09.331Z,87722.22
2024-04-18T02:52:54.359Z,87723.66
2024-04-18T02:55:39.431Z,87722.50
2024-04-18T02:58:24.530Z,87722.63
2024-04-18T03:01:09.657Z,87725.00
2024-04-18T03:03:54.975Z,87731.06
2024-04-18T03:06:40.235Z,87731.63
2024-04-18T03:09:25.437Z,87730.69
2024-04-18T03:12:10.362Z,87729.56
2024-04-18T03:14:55.550Z,87726.53
2024-04-18T03:17:40.723Z,87728.16
2024-04-18T03:20:25.661Z,87728.75
2024-04-18T03:25:52.670Z,87722.47
2024-04-18T03:28:37.740Z,87726.38
2024-04-18T03:31:22.800Z,87728.63
2024-04-18T03:34:07.893Z,87728.53
2024-04-18T03:36:52.966Z,87729.63
2024-04-18T03:39:38.033Z,87733.56
2024-04-18T03:42:22.919Z,87727.66
2024-04-18T03:45:08.040Z,87723.41
2024-04-18T03:47:53.198Z,87726.22
2024-04-18T03:50:38.349Z,87715.91
2024-04-18T03:53:23.584Z,87718.50
2024-04-18T03:56:08.684Z,87721.56
2024-04-18T03:58:53.760Z,87722.59
2024-04-18T04:01:38.871Z,87718.16
2024-04-18T04:04:24.002Z,87723.00
2024-04-18T04:07:08.891Z,87727.06
2024-04-18T04:09:54.042Z,87724.56
2024-04-18T04:12:39.262Z,87723.72
2024-04-18T04:15:24.220Z,87726.81
2024-04-18T04:18:09.493Z,87722.63
2024-04-18T04:20:54.305Z,87730.31
2024-04-18T04:23:39.973Z,87728.63
2024-04-18T04:26:24.981Z,87727.44
2024-04-18T04:29:10.010Z,87726.00
2024-04-18T04:31:55.287Z,87732.44
2024-04-18T04:34:40.291Z,87722.75
2024-04-18T04:37:25.382Z,87721.78
2024-04-18T04:40:10.518Z,87719.19
2024-04-18T04:42:58.828Z,87718.66
2024-04-18T04:45:45.557Z,87718.66
2024-04-18T04:48:32.239Z,87719.78
2024-04-18T04:51:19.112Z,87713.44
2024-04-18T04:54:04.256Z,87723.88
2024-04-18T04:56:49.234Z,87724.94
2024-04-18T04:59:34.347Z,87733.38
2024-04-18T05:02:19.464Z,87732.28
2024-04-18T05:05:04.454Z,87731.44
2024-04-18T05:07:51.350Z,87737.34
2024-04-18T05:13:19.187Z,87740.19
2024-04-18T05:16:04.111Z,87747.69
2024-04-18T05:18:49.311Z,87751.47
2024-04-18T05:21:34.139Z,87753.38
2024-04-18T05:24:19.334Z,87758.78
2024-04-18T05:27:04.335Z,87757.13
2024-04-18T05:29:49.498Z,87765.03
2024-04-18T05:32:34.689Z,87763.16
2024-04-18T05:35:20.149Z,87768.28
2024-04-18T05:38:05.298Z,87765.00
2024-04-18T05:40:50.314Z,87766.38
2024-04-18T05:43:35.748Z,87779.38
2024-04-18T05:46:21.071Z,87774.84
2024-04-18T05:49:06.099Z,87783.59
2024-04-18T05:51:51.342Z,87776.00
2024-04-18T05:54:36.394Z,87774.97
2024-04-18T05:57:21.535Z,87783.28
2024-04-18T06:00:07.550Z,87783.84
2024-04-18T06:02:52.498Z,87790.88
2024-04-18T06:05:37.333Z,87784.34
2024-04-18T06:08:22.270Z,87787.63
2024-04-18T06:11:07.416Z,87785.72
2024-04-18T06:13:52.505Z,87781.88
2024-04-18T06:16:37.520Z,87791.88
2024-04-18T06:19:23.129Z,87783.91
2024-04-18T06:22:09.118Z,87785.22
2024-04-18T06:24:54.160Z,87784.75
2024-04-18T06:27:39.097Z,87780.47
2024-04-18T06:30:24.198Z,87788.50
2024-04-18T06:33:09.292Z,87787.63
2024-04-18T06:35:54.295Z,87788.81
2024-04-18T06:38:39.329Z,87793.72
2024-04-18T06:41:24.461Z,87794.66
2024-04-18T06:44:09.431Z,87798.50
2024-04-18T06:47:00.552Z,87803.78
2024-04-18T06:49:47.499Z,87804.75
2024-04-18T06:52:32.675Z,87813.94
2024-04-18T06:55:17.719Z,87811.03
2024-04-18T06:58:02.971Z,87815.75
2024-04-18T07:00:48.190Z,87815.81
2024-04-18T07:03:33.712Z,87823.28
2024-04-18T07:06:18.677Z,87815.84
2024-04-18T07:09:03.588Z,87828.50
2024-04-18T07:11:48.791Z,87827.44
2024-04-18T07:14:33.901Z,87837.22
2024-04-18T07:17:18.956Z,87834.31
2024-04-18T07:20:04.039Z,87837.06
2024-04-18T07:22:49.211Z,87837.66
2024-04-18T07:25:34.255Z,87840.16
2024-04-18T07:28:19.378Z,87835.75
2024-04-18T07:31:04.548Z,87840.66
2024-04-18T07:33:49.562Z,87835.44
2024-04-18T07:36:34.812Z,87839.06
2024-04-18T07:39:20.216Z,87842.84
2024-04-18T07:42:05.367Z,87848.03
2024-04-18T07:44:50.297Z,87851.75
2024-04-18T07:47:35.467Z,87847.75
2024-04-18T07:50:20.583Z,87855.91
2024-04-18T07:53:09.868Z,87854.97
2024-04-18T07:55:55.802Z,87853.41
2024-04-18T07:58:41.538Z,87862.59
2024-04-18T08:01:28.372Z,87860.69
2024-04-18T08:04:34.759Z,87861.16
2024-04-18T08:07:22.292Z,87871.94
2024-04-18T08:10:11.698Z,87873.59
2024-04-18T08:13:02.586Z,87877.28
2024-04-18T08:18:38.328Z,87885.00
2024-04-18T08:21:23.394Z,87894.59
2024-04-18T08:24:08.373Z,87891.97
2024-04-18T08:26:53.666Z,87895.69
2024-04-18T08:29:38.732Z,87893.69
2024-04-18T08:32:23.798Z,87898.41
2024-04-18T08:35:08.878Z,87897.31
2024-04-18T08:37:53.855Z,87908.03
2024-04-18T08:40:40.070Z,87903.59
2024-04-18T08:43:25.126Z,87910.97
2024-04-18T08:46:11.598Z,87915.63
2024-04-18T08:48:56.941Z,87926.75
2024-04-18T08:51:41.919Z,87928.41
2024-04-18T08:54:26.848Z,87935.13
2024-04-18T08:57:11.952Z,87926.69
2024-04-18T08:59:57.053Z,87935.03
2024-04-18T09:02:42.140Z,87923.28
2024-04-18T09:05:27.423Z,87926.75
2024-04-18T09:08:12.434Z,87919.59
2024-04-18T09:10:57.353Z,87927.56
2024-04-18T09:13:42.468Z,87931.50
2024-04-18T09:16:27.500Z,87936.00
2024-04-18T09:19:13.822Z,87937.84
2024-04-18T09:21:59.539Z,87938.09
2024-04-18T09:24:44.749Z,87935.78
2024-04-18T09:27:29.740Z,87938.94
2024-04-18T09:30:14.791Z,87942.50
2024-04-18T09:33:01.799Z,87934.97
2024-04-18T09:35:46.941Z,87942.47
2024-04-18T09:38:31.947Z,87946.88
2024-04-18T09:41:16.930Z,87940.31
2024-04-18T09:44:01.982Z,87945.78
2024-04-18T09:46:47.222Z,87944.88
2024-04-18T09:49:32.312Z,87954.88
2024-04-18T09:52:17.471Z,87948.31
2024-04-18T09:55:02.578Z,87943.88
2024-04-18T09:57:50.621Z,87937.50
2024-04-18T10:00:36.033Z,87939.78
2024-04-18T10:03:21.062Z,87944.50
2024-04-18T10:06:06.177Z,87943.25
2024-04-18T10:08:51.200Z,87934.53
2024-04-18T10:11:36.389Z,87936.72
2024-04-18T10:14:21.289Z,87942.97
2024-04-18T10:17:06.350Z,87936.00
2024-04-18T10:19:51.517Z,87932.41
2024-04-18T10:22:45.488Z,87933.63
2024-04-18T10:25:32.628Z,87935.19
2024-04-18T10:28:17.801Z,87935.88
2024-04-18T10:31:02.956Z,87932.63
2024-04-18T10:33:47.914Z,87927.16
2024-04-18T10:36:32.859Z,87929.34
2024-04-18T10:39:17.791Z,87924.25
2024-04-18T10:42:03.118Z,87918.56
2024-04-18T10:44:48.067Z,87924.50
2024-04-18T10:47:33.387Z,87914.75
2024-04-18T10:50:18.510Z,87904.44
2024-04-18T10:53:03.573Z,87914.31
2024-04-18T10:55:48.678Z,87905.56
2024-04-18T10:58:33.814Z,87914.91
2024-04-18T11:01:19.126Z,87914.22
2024-04-18T11:04:04.106Z,87908.03
2024-04-18T11:06:49.035Z,87920.38
2024-04-18T11:09:34.234Z,87909.22
2024-04-18T11:12:19.280Z,87915.59
2024-04-18T11:15:04.402Z,87902.94
2024-04-18T11:17:49.388Z,87900.72
2024-04-18T11:20:34.486Z,87917.44
2024-04-18T11:23:19.549Z,87928.19
2024-04-18T11:26:05.747Z,87917.97
2024-04-18T11:28:50.917Z,87923.13
2024-04-18T11:31:35.851Z,87920.41
2024-04-18T11:34:20.828Z,87930.78
2024-04-18T11:37:05.856Z,87930.75
2024-04-18T11:39:50.905Z,87927.09
2024-04-18T11:42:36.071Z,87923.25
2024-04-18T11:45:21.052Z,87918.47
2024-04-18T11:48:06.496Z,87916.47
2024-04-18T11:50:51.812Z,87932.75
2024-04-18T11:53:36.974Z,87923.97
2024-04-18T11:56:21.976Z,87916.91
2024-04-18T11:59:06.958Z,87917.63
2024-04-18T12:01:51.969Z,87924.56
2024-04-18T12:04:38.244Z,87934.13
2024-04-18T12:07:24.301Z,87930.72
2024-04-18T12:10:09.368Z,87931.25
2024-04-18T12:12:54.523Z,87931.00
2024-04-18T12:15:39.638Z,87928.94
2024-04-18T12:18:24.695Z,87936.91
2024-04-18T12:21:09.738Z,87940.19
2024-04-18T12:23:54.647Z,87949.72
2024-04-18T12:26:39.982Z,87933.91
2024-04-18T12:29:24.998Z,87932.13
2024-04-18T12:32:10.130Z,87948.47
2024-04-18T12:34:55.146Z,87956.50
2024-04-18T12:37:40.060Z,87962.44
2024-04-18T12:40:25.102Z,87959.16
2024-04-18T12:43:10.106Z,87971.41
2024-04-18T12:46:03.504Z,87965.25
2024-04-18T12:48:56.366Z,87975.53
2024-04-18T12:51:41.751Z,87981.41
2024-04-18T12:54:26.692Z,87985.84
2024-04-18T12:57:11.667Z,87997.91
2024-04-18T12:59:56.547Z,88012.91
2024-04-18T13:02:41.554Z,88015.09
2024-04-18T13:05:26.727Z,88021.00
2024-04-18T13:08:11.699Z,88012.59
2024-04-18T13:10:56.768Z,88009.75
2024-04-18T13:13:41.738Z,88005.53
2024-04-18T13:16:26.982Z,88011.22
2024-04-18T13:19:11.968Z,88013.75
2024-04-18T13:22:00.081Z,88009.84
2024-04-18T13:24:45.760Z,88010.25
2024-04-18T13:27:31.635Z,88009.50
2024-04-18T13:30:16.907Z,88002.84
2024-04-18T13:33:02.047Z,88003.50
2024-04-18T13:35:46.866Z,88007.72
2024-04-18T13:38:31.974Z,88004.25
2024-04-18T13:41:17.013Z,88002.28
2024-04-18T13:44:02.194Z,88005.50
2024-04-18T13:46:47.277Z,87993.94
2024-04-18T13:49:32.186Z,88003.41
2024-04-18T13:52:17.181Z,87990.13
2024-04-18T13:55:02.219Z,87995.09
2024-04-18T13:57:47.315Z,87994.19
2024-04-18T14:00:32.424Z,87987.94
2024-04-18T14:03:19.308Z,87988.56
2024-04-18T14:06:04.656Z,87986.25
2024-04-18T14:08:49.683Z,87994.88
2024-04-18T14:11:34.860Z,87997.28
2024-04-18T14:14:19.950Z,87992.38
2024-04-18T14:17:05.163Z,87997.91
2024-04-18T14:19:49.961Z,87995.03
2024-04-18T14:22:34.954Z,87991.41
2024-04-18T14:25:19.991Z,87996.03
2024-04-18T14:28:09.681Z,87993.63
2024-04-18T14:30:57.828Z,87998.94
2024-04-18T14:33:43.057Z,88000.13
2024-04-18T14:36:27.961Z,88002.66
2024-04-18T14:39:13.046Z,88005.91
2024-04-18T14:41:58.036Z,88007.41
2024-04-18T14:44:43.249Z,88009.03
2024-04-18T14:47:28.334Z,88015.91
2024-04-18T14:50:13.523Z,88011.75
2024-04-18T14:52:58.622Z,88015.06
2024-04-18T14:55:43.737Z,88010.94
2024-04-18T14:58:28.845Z,88016.72
2024-04-18T15:01:13.875Z,88018.69
2024-04-18T15:03:58.976Z,88023.19
2024-04-18T15:06:43.775Z,88034.72
2024-04-18T15:09:28.844Z,88036.75
2024-04-18T15:12:13.876Z,88038.91
2024-04-18T15:14:58.840Z,88045.19
2024-04-18T15:17:44.044Z,88048.34
2024-04-18T15:20:28.920Z,88060.34
2024-04-18T15:23:14.061Z,88061.72
2024-04-18T15:25:59.156Z,88064.03
2024-04-18T15:28:44.429Z,88067.22
2024-04-18T15:31:29.338Z,88074.31
2024-04-18T15:34:14.543Z,88068.13
2024-04-18T15:36:59.723Z,88076.00
2024-04-18T15:39:44.593Z,88080.13
2024-04-18T15:42:29.686Z,88084.19
2024-04-18T15:45:14.781Z,88100.00
2024-04-18T15:47:59.859Z,88094.69
2024-04-18T15:50:44.814Z,88104.03
2024-04-18T15:53:29.963Z,88113.91
2024-04-18T15:56:16.571Z,88113.16
2024-04-18T15:59:01.925Z,88122.53
2024-04-18T16:01:47.038Z,88125.03
2024-04-18T16:04:31.977Z,88137.59
2024-04-18T16:07:17.034Z,88128.63
2024-04-18T16:10:02.247Z,88137.31
2024-04-18T16:12:47.396Z,88135.41
2024-04-18T16:15:32.481Z,88144.19
2024-04-18T16:18:17.589Z,88138.78
2024-04-18T16:21:02.656Z,88153.25
2024-04-18T16:23:47.731Z,88157.22
2024-04-18T16:26:32.919Z,88160.63
2024-04-18T16:29:17.978Z,88167.41
2024-04-18T16:32:03.025Z,88168.31
2024-04-18T16:34:48.115Z,88171.47
2024-04-18T16:37:33.209Z,88175.69
2024-04-18T16:40:18.520Z,88179.75
2024-04-18T16:43:03.494Z,88174.06
2024-04-18T16:45:48.847Z,88177.78
2024-04-18T16:48:33.796Z,88184.44
2024-04-18T16:51:19.017Z,88187.41
2024-04-18T16:54:03.806Z,88190.16
2024-04-18T16:56:48.932Z,88206.84
2024-04-18T16:59:33.903Z,88199.97
2024-04-18T17:02:18.848Z,88211.03
2024-04-18T17:05:04.061Z,88209.06
2024-04-18T17:07:48.966Z,88211.16
2024-04-18T17:10:34.295Z,88218.81
2024-04-18T17:13:19.122Z,88224.66
2024-04-18T17:16:04.118Z,88230.00
2024-04-18T17:18:49.311Z,88231.72
2024-04-18T17:21:34.620Z,88238.06
2024-04-18T17:24:19.762Z,88241.47
2024-04-18T17:27:04.821Z,88242.66
2024-04-18T17:29:49.945Z,88251.47
2024-04-18T17:32:35.064Z,88254.94
2024-04-18T17:35:20.109Z,88270.38
2024-04-18T17:38:05.229Z,88267.66
2024-04-18T17:40:50.444Z,88269.22
2024-04-18T17:43:35.782Z,88273.47
2024-04-18T17:46:20.767Z,88282.03
2024-04-18T17:49:06.066Z,88281.84
2024-04-18T17:51:51.036Z,88293.75
2024-04-18T17:54:36.250Z,88295.28
2024-04-18T17:57:21.275Z,88295.34
2024-04-18T18:00:06.291Z,88292.13
2024-04-18T18:02:51.533Z,88297.16
2024-04-18T18:05:36.450Z,88301.97
2024-04-18T18:08:21.587Z,88301.97
2024-04-18T18:11:06.640Z,88315.59
2024-04-18T18:13:53.795Z,88317.50
2024-04-18T18:16:38.967Z,88324.16
2024-04-18T18:19:23.993Z,88323.84
2024-04-18T18:22:09.163Z,88321.41
2024-04-18T18:24:54.290Z,88325.03
2024-04-18T18:27:39.410Z,88328.16
2024-04-18T18:30:24.271Z,88335.25
2024-04-18T18:33:09.480Z,88345.91
2024-04-18T18:35:54.640Z,88350.91
2024-04-18T18:38:39.716Z,88357.53
2024-04-18T18:41:24.719Z,88363.47
2024-04-18T18:44:09.608Z,88370.31
2024-04-18T18:46:54.705Z,88379.50
2024-04-18T18:49:39.683Z,88379.25
2024-04-18T18:52:24.937Z,88388.44
2024-04-18T18:55:09.994Z,88395.94
2024-04-18T18:57:55.035Z,88397.38
2024-04-18T19:00:40.152Z,88404.66
2024-04-18T19:03:25.285Z,88402.56
2024-04-18T19:06:10.300Z,88405.75
2024-04-18T19:08:55.407Z,88407.84
2024-04-18T19:11:40.505Z,88422.38
2024-04-18T19:14:25.442Z,88434.59
2024-04-18T19:17:11.153Z,88441.41
2024-04-18T19:19:57.087Z,88444.69
2024-04-18T19:22:42.106Z,88447.50
2024-04-18T19:25:27.166Z,88451.22
2024-04-18T19:28:12.116Z,88453.44
2024-04-18T19:30:57.196Z,88459.53
2024-04-18T19:33:42.349Z,88460.78
2024-04-18T19:36:27.913Z,88461.09
2024-04-18T19:39:13.061Z,88464.31
2024-04-18T19:41:58.202Z,88466.44
2024-04-18T19:44:43.353Z,88466.94
2024-04-18T19:47:28.272Z,88473.03
2024-04-18T19:50:13.273Z,88474.44
2024-04-18T19:52:58.381Z,88478.66
2024-04-18T19:55:43.490Z,88476.81
2024-04-18T19:58:28.492Z,88485.97
2024-04-18T20:01:13.612Z,88488.09
2024-04-18T20:03:58.841Z,88495.13
2024-04-18T20:06:43.707Z,88497.25
2024-04-18T20:09:28.916Z,88494.22
2024-04-18T20:12:13.902Z,88497.69
2024-04-18T20:14:59.056Z,88506.13
2024-04-18T20:17:46.246Z,88506.84
2024-04-18T20:20:32.172Z,88517.88
2024-04-18T20:23:17.313Z,88525.59
2024-04-18T20:26:02.415Z,88523.50
2024-04-18T20:28:47.539Z,88525.13
2024-04-18T20:31:32.607Z,88526.03
2024-04-18T20:34:17.629Z,88522.78
2024-04-18T20:37:02.776Z,88525.13
2024-04-18T20:39:47.864Z,88523.00
2024-04-18T20:42:33.005Z,88522.78
2024-04-18T20:45:18.041Z,88524.66
2024-04-18T20:48:03.337Z,88527.25
2024-04-18T20:50:48.468Z,88522.31
2024-04-18T20:53:33.538Z,88529.34
2024-04-18T20:56:18.641Z,88537.78
2024-04-18T20:59:03.740Z,88542.94
2024-04-18T21:01:48.820Z,88550.00
2024-04-18T21:04:33.817Z,88556.78
2024-04-18T21:07:19.010Z,88561.22
2024-04-18T21:10:03.946Z,88568.47
2024-04-18T21:12:49.026Z,88568.00
2024-04-18T21:15:34.111Z,88577.59
2024-04-18T21:18:19.187Z,88582.28
2024-04-18T21:21:04.243Z,88578.28
2024-04-18T21:23:49.246Z,88580.88
2024-04-18T21:26:34.397Z,88580.63
2024-04-18T21:29:19.522Z,88581.56
2024-04-18T21:32:04.762Z,88587.88
2024-04-18T21:34:49.882Z,88585.78
2024-04-18T21:37:34.851Z,88589.53
2024-04-18T21:40:20.057Z,88587.66
2024-04-18T21:43:04.931Z,88590.50
2024-04-18T21:45:50.204Z,88590.97
2024-04-18T21:48:35.352Z,88585.56
2024-04-18T21:51:20.249Z,88589.28
2024-04-18T21:54:05.173Z,88586.25
2024-04-18T21:56:50.239Z,88589.03
2024-04-18T21:59:35.257Z,88582.72
2024-04-18T22:02:20.314Z,88583.41
2024-04-18T22:05:05.341Z,88593.03
2024-04-18T22:07:50.379Z,88587.63
2024-04-18T22:10:35.528Z,88591.09
2024-04-18T22:13:20.454Z,88598.34
2024-04-18T22:16:05.498Z,88595.28
2024-04-18T22:18:50.677Z,88602.78
2024-04-18T22:21:35.616Z,88601.34
2024-04-18T22:24:20.777Z,88607.22
2024-04-18T22:27:05.667Z,88613.97
2024-04-18T22:29:50.856Z,88616.50
2024-04-18T22:32:35.978Z,88615.03
2024-04-18T22:35:21.194Z,88613.16
2024-04-18T22:38:06.464Z,88618.25
2024-04-18T22:40:51.506Z,88628.72
2024-04-18T22:43:36.681Z,88629.09
2024-04-18T22:46:21.591Z,88616.00
2024-04-18T22:49:06.893Z,88621.84
2024-04-18T22:51:51.933Z,88618.75
2024-04-18T22:54:37.100Z,88611.72
2024-04-18T22:57:22.003Z,88604.22
2024-04-18T23:00:07.069Z,88610.03
2024-04-18T23:02:52.237Z,88615.69
2024-04-18T23:05:37.206Z,88614.28
2024-04-18T23:08:22.215Z,88613.81
2024-04-18T23:11:07.174Z,88614.72
2024-04-18T23:13:52.294Z,88613.31
2024-04-18T23:16:37.347Z,88621.19
2024-04-18T23:19:22.484Z,88618.06
2024-04-18T23:22:07.505Z,88622.59
2024-04-18T23:24:52.430Z,88618.38
2024-04-18T23:27:37.738Z,88627.94
2024-04-18T23:30:22.865Z,88635.66
2024-04-18T23:33:07.970Z,88621.66
2024-04-18T23:35:52.848Z,88625.78
2024-04-18T23:38:37.949Z,88635.88
2024-04-18T23:41:23.175Z,88631.91
2024-04-18T23:44:08.288Z,88630.03
2024-04-18T23:46:53.374Z,88627.31
2024-04-18T23:49:38.358Z,88622.72
2024-04-18T23:52:23.486Z,88631.41
2024-04-18T23:55:08.424Z,88631.47
2024-04-18T23:57:53.742Z,88630.91
